sensor_id;sensor_type;location;lat;lon;timestamp;pressure;altitude;pressure_sealevel;temperature;humidity
10606;BME280;5350;42.698;23.148;2023-02-21T00:00:08;93999.88;;;8.28;55.59
10606;BME280;5350;42.698;23.148;2023-02-21T00:02:52;93999.63;;;8.35;55.45
10606;BME280;5350;42.698;23.148;2023-02-21T00:05:36;93998.81;;;8.24;55.74
10606;BME280;5350;42.698;23.148;2023-02-21T00:08:20;93996.22;;;8.19;55.93
10606;BME280;5350;42.698;23.148;2023-02-21T00:11:04;94006.72;;;8.04;56.18
10606;BME280;5350;42.698;23.148;2023-02-21T00:13:48;94005.66;;;8.25;55.25
10606;BME280;5350;42.698;23.148;2023-02-21T00:16:33;94006.16;;;8.22;55.54
10606;BME280;5350;42.698;23.148;2023-02-21T00:19:17;93984.44;;;8.22;55.21
10606;BME280;5350;42.698;23.148;2023-02-21T00:22:01;93991.22;;;8.23;55.10
10606;BME280;5350;42.698;23.148;2023-02-21T00:24:45;93988.34;;;8.19;55.38
10606;BME280;5350;42.698;23.148;2023-02-21T00:27:29;93991.53;;;8.11;55.57
10606;BME280;5350;42.698;23.148;2023-02-21T00:30:14;93976.31;;;8.13;55.93
10606;BME280;5350;42.698;23.148;2023-02-21T00:32:59;93970.56;;;8.06;55.80
10606;BME280;5350;42.698;23.148;2023-02-21T00:35:44;93984.72;;;8.05;56.07
10606;BME280;5350;42.698;23.148;2023-02-21T00:38:28;93979.75;;;7.98;55.95
10606;BME280;5350;42.698;23.148;2023-02-21T00:41:12;93986.25;;;8.01;56.12
10606;BME280;5350;42.698;23.148;2023-02-21T00:43:56;93987.84;;;7.97;56.15
10606;BME280;5350;42.698;23.148;2023-02-21T00:46:40;93974.50;;;7.98;56.15
10606;BME280;5350;42.698;23.148;2023-02-21T00:49:26;93969.00;;;8.05;56.06
10606;BME280;5350;42.698;23.148;2023-02-21T00:52:10;93956.69;;;8.00;56.08
10606;BME280;5350;42.698;23.148;2023-02-21T00:54:54;93944.09;;;8.02;56.09
10606;BME280;5350;42.698;23.148;2023-02-21T00:57:38;93943.84;;;8.09;55.90
10606;BME280;5350;42.698;23.148;2023-02-21T01:00:23;93946.69;;;8.13;55.40
10606;BME280;5350;42.698;23.148;2023-02-21T01:03:08;93925.47;;;8.14;55.88
10606;BME280;5350;42.698;23.148;2023-02-21T01:05:54;93932.28;;;8.25;55.41
10606;BME280;5350;42.698;23.148;2023-02-21T01:08:40;93929.13;;;8.38;54.55
10606;BME280;5350;42.698;23.148;2023-02-21T01:11:25;93923.56;;;8.50;53.97
10606;BME280;5350;42.698;23.148;2023-02-21T01:14:09;93906.75;;;8.56;53.95
10606;BME280;5350;42.698;23.148;2023-02-21T01:16:54;93914.34;;;8.57;53.57
10606;BME280;5350;42.698;23.148;2023-02-21T01:19:37;93909.06;;;8.67;53.12
10606;BME280;5350;42.698;23.148;2023-02-21T01:22:23;93902.69;;;8.83;52.38
10606;BME280;5350;42.698;23.148;2023-02-21T01:25:07;93900.56;;;8.85;52.45
10606;BME280;5350;42.698;23.148;2023-02-21T01:27:52;93905.00;;;8.90;52.08
10606;BME280;5350;42.698;23.148;2023-02-21T01:30:37;93899.78;;;8.85;52.08
10606;BME280;5350;42.698;23.148;2023-02-21T01:33:20;93898.22;;;8.84;52.31
10606;BME280;5350;42.698;23.148;2023-02-21T01:36:05;93901.63;;;8.84;52.46
10606;BME280;5350;42.698;23.148;2023-02-21T01:38:51;93895.31;;;8.85;52.30
10606;BME280;5350;42.698;23.148;2023-02-21T01:41:35;93894.75;;;8.94;51.92
10606;BME280;5350;42.698;23.148;2023-02-21T01:44:35;93894.16;;;9.02;51.77
10606;BME280;5350;42.698;23.148;2023-02-21T01:47:20;93887.63;;;8.99;51.41
10606;BME280;5350;42.698;23.148;2023-02-21T01:50:10;93889.00;;;8.92;51.78
10606;BME280;5350;42.698;23.148;2023-02-21T01:52:55;93876.47;;;8.83;52.09
10606;BME280;5350;42.698;23.148;2023-02-21T01:55:42;93878.34;;;8.78;52.18
10606;BME280;5350;42.698;23.148;2023-02-21T01:58:28;93876.25;;;8.75;52.30
10606;BME280;5350;42.698;23.148;2023-02-21T02:01:22;93875.44;;;8.79;52.16
10606;BME280;5350;42.698;23.148;2023-02-21T02:04:08;93866.53;;;8.75;52.27
10606;BME280;5350;42.698;23.148;2023-02-21T02:06:52;93866.31;;;8.67;52.68
10606;BME280;5350;42.698;23.148;2023-02-21T02:09:36;93867.63;;;8.69;52.47
10606;BME280;5350;42.698;23.148;2023-02-21T02:12:55;93865.53;;;8.66;52.51
10606;BME280;5350;42.698;23.148;2023-02-21T02:15:32;93847.69;;;8.68;52.81
10606;BME280;5350;42.698;23.148;2023-02-21T02:18:31;93844.34;;;8.58;52.86
10606;BME280;5350;42.698;23.148;2023-02-21T02:21:27;93859.78;;;8.64;52.63
10606;BME280;5350;42.698;23.148;2023-02-21T02:24:16;93857.16;;;8.64;53.09
10606;BME280;5350;42.698;23.148;2023-02-21T02:27:09;93848.72;;;8.72;52.42
10606;BME280;5350;42.698;23.148;2023-02-21T02:30:04;93849.00;;;8.71;52.73
10606;BME280;5350;42.698;23.148;2023-02-21T02:32:57;93846.38;;;8.71;52.28
10606;BME280;5350;42.698;23.148;2023-02-21T02:35:30;93829.91;;;8.60;52.54
10606;BME280;5350;42.698;23.148;2023-02-21T02:38:01;93840.88;;;8.67;52.68
10606;BME280;5350;42.698;23.148;2023-02-21T02:40:33;93845.63;;;8.65;52.44
10606;BME280;5350;42.698;23.148;2023-02-21T02:43:08;93836.66;;;8.71;52.68
10606;BME280;5350;42.698;23.148;2023-02-21T02:45:40;93840.88;;;8.67;52.78
10606;BME280;5350;42.698;23.148;2023-02-21T02:48:13;93840.59;;;8.69;52.63
10606;BME280;5350;42.698;23.148;2023-02-21T02:50:45;93842.88;;;8.80;52.17
10606;BME280;5350;42.698;23.148;2023-02-21T02:53:15;93846.59;;;8.79;51.99
10606;BME280;5350;42.698;23.148;2023-02-21T02:55:47;93842.34;;;8.83;51.69
10606;BME280;5350;42.698;23.148;2023-02-21T02:58:16;93850.47;;;8.87;51.83
10606;BME280;5350;42.698;23.148;2023-02-21T03:00:53;93844.97;;;8.89;51.56
10606;BME280;5350;42.698;23.148;2023-02-21T03:03:34;93840.22;;;8.91;51.58
10606;BME280;5350;42.698;23.148;2023-02-21T03:06:15;93849.38;;;8.93;51.35
10606;BME280;5350;42.698;23.148;2023-02-21T03:08:51;93837.81;;;8.94;51.06
10606;BME280;5350;42.698;23.148;2023-02-21T03:11:20;93844.31;;;9.02;51.25
10606;BME280;5350;42.698;23.148;2023-02-21T03:13:53;93839.16;;;8.92;51.30
10606;BME280;5350;42.698;23.148;2023-02-21T03:16:26;93842.56;;;8.92;51.07
10606;BME280;5350;42.698;23.148;2023-02-21T03:18:58;93830.25;;;8.88;51.34
10606;BME280;5350;42.698;23.148;2023-02-21T03:21:30;93848.13;;;8.85;51.31
10606;BME280;5350;42.698;23.148;2023-02-21T03:24:00;93846.00;;;8.88;51.68
10606;BME280;5350;42.698;23.148;2023-02-21T03:26:30;93833.69;;;8.83;51.95
10606;BME280;5350;42.698;23.148;2023-02-21T03:28:58;93842.44;;;8.73;51.75
10606;BME280;5350;42.698;23.148;2023-02-21T03:31:28;93834.66;;;8.53;52.38
10606;BME280;5350;42.698;23.148;2023-02-21T03:33:58;93834.69;;;8.48;52.95
10606;BME280;5350;42.698;23.148;2023-02-21T03:36:24;93839.44;;;8.46;53.07
10606;BME280;5350;42.698;23.148;2023-02-21T03:38:53;93835.28;;;8.40;53.21
10606;BME280;5350;42.698;23.148;2023-02-21T03:41:20;93833.69;;;8.39;52.87
10606;BME280;5350;42.698;23.148;2023-02-21T03:43:47;93838.41;;;8.42;53.19
10606;BME280;5350;42.698;23.148;2023-02-21T03:46:14;93829.97;;;8.50;52.61
10606;BME280;5350;42.698;23.148;2023-02-21T03:48:41;93829.44;;;8.48;52.97
10606;BME280;5350;42.698;23.148;2023-02-21T03:51:07;93823.41;;;8.48;52.72
10606;BME280;5350;42.698;23.148;2023-02-21T03:53:34;93840.44;;;8.50;53.02
10606;BME280;5350;42.698;23.148;2023-02-21T03:56:02;93834.69;;;8.48;52.97
10606;BME280;5350;42.698;23.148;2023-02-21T03:58:29;93846.00;;;8.44;52.94
10606;BME280;5350;42.698;23.148;2023-02-21T04:00:56;93861.19;;;8.47;52.95
10606;BME280;5350;42.698;23.148;2023-02-21T04:03:23;93857.00;;;8.46;53.00
10606;BME280;5350;42.698;23.148;2023-02-21T04:05:49;93853.28;;;8.52;52.91
10606;BME280;5350;42.698;23.148;2023-02-21T04:08:16;93842.00;;;8.51;52.58
10606;BME280;5350;42.698;23.148;2023-02-21T04:10:43;93848.84;;;8.47;52.83
10606;BME280;5350;42.698;23.148;2023-02-21T04:13:11;93850.94;;;8.45;53.09
10606;BME280;5350;42.698;23.148;2023-02-21T04:15:38;93848.03;;;8.52;52.58
10606;BME280;5350;42.698;23.148;2023-02-21T04:18:05;93850.44;;;8.43;52.82
10606;BME280;5350;42.698;23.148;2023-02-21T04:20:32;93866.69;;;8.45;52.94
10606;BME280;5350;42.698;23.148;2023-02-21T04:22:58;93868.78;;;8.43;53.11
10606;BME280;5350;42.698;23.148;2023-02-21T04:25:25;93872.72;;;8.41;52.97
10606;BME280;5350;42.698;23.148;2023-02-21T04:27:52;93870.94;;;8.36;53.36
10606;BME280;5350;42.698;23.148;2023-02-21T04:30:20;93873.56;;;8.31;53.11
10606;BME280;5350;42.698;23.148;2023-02-21T04:32:46;93870.94;;;8.26;53.89
10606;BME280;5350;42.698;23.148;2023-02-21T04:35:13;93878.81;;;8.21;53.85
10606;BME280;5350;42.698;23.148;2023-02-21T04:37:40;93874.09;;;8.18;54.16
10606;BME280;5350;42.698;23.148;2023-02-21T04:40:09;93881.19;;;8.18;53.52
10606;BME280;5350;42.698;23.148;2023-02-21T04:42:36;93895.66;;;7.95;54.76
10606;BME280;5350;42.698;23.148;2023-02-21T04:45:03;93905.09;;;7.91;54.71
10606;BME280;5350;42.698;23.148;2023-02-21T04:47:31;93912.97;;;7.86;55.47
10606;BME280;5350;42.698;23.148;2023-02-21T04:49:58;93886.00;;;7.75;55.90
10606;BME280;5350;42.698;23.148;2023-02-21T04:52:24;93879.47;;;7.68;55.97
10606;BME280;5350;42.698;23.148;2023-02-21T04:54:51;93863.75;;;7.68;55.57
10606;BME280;5350;42.698;23.148;2023-02-21T04:57:18;93875.78;;;7.79;55.48
10606;BME280;5350;42.698;23.148;2023-02-21T04:59:45;93879.16;;;7.84;55.46
10606;BME280;5350;42.698;23.148;2023-02-21T05:02:12;93869.97;;;7.97;55.02
10606;BME280;5350;42.698;23.148;2023-02-21T05:04:40;93840.13;;;8.03;54.27
10606;BME280;5350;42.698;23.148;2023-02-21T05:07:07;93861.56;;;8.10;54.26
10606;BME280;5350;42.698;23.148;2023-02-21T05:09:34;93874.97;;;7.93;54.69
10606;BME280;5350;42.698;23.148;2023-02-21T05:12:01;93870.78;;;7.92;54.68
10606;BME280;5350;42.698;23.148;2023-02-21T05:14:27;93859.25;;;7.98;54.77
10606;BME280;5350;42.698;23.148;2023-02-21T05:16:54;93858.94;;;8.10;54.29
10606;BME280;5350;42.698;23.148;2023-02-21T05:19:21;93853.13;;;8.18;54.12
10606;BME280;5350;42.698;23.148;2023-02-21T05:21:55;93847.09;;;8.23;53.46
10606;BME280;5350;42.698;23.148;2023-02-21T05:24:22;93829.59;;;8.13;53.98
10606;BME280;5350;42.698;23.148;2023-02-21T05:26:50;93844.75;;;8.16;53.82
10606;BME280;5350;42.698;23.148;2023-02-21T05:29:17;93842.19;;;8.11;54.22
10606;BME280;5350;42.698;23.148;2023-02-21T05:31:44;93840.06;;;8.13;54.22
10606;BME280;5350;42.698;23.148;2023-02-21T05:34:11;93851.63;;;8.07;54.58
10606;BME280;5350;42.698;23.148;2023-02-21T05:36:38;93840.06;;;8.13;54.24
10606;BME280;5350;42.698;23.148;2023-02-21T05:39:07;93842.13;;;8.16;53.94
10606;BME280;5350;42.698;23.148;2023-02-21T05:41:34;93844.22;;;8.29;53.67
10606;BME280;5350;42.698;23.148;2023-02-21T05:44:02;93848.38;;;8.40;53.16
10606;BME280;5350;42.698;23.148;2023-02-21T05:46:30;93854.66;;;8.39;52.72
10606;BME280;5350;42.698;23.148;2023-02-21T05:48:59;93851.41;;;8.57;52.83
10606;BME280;5350;42.698;23.148;2023-02-21T05:51:26;93858.25;;;8.58;52.43
10606;BME280;5350;42.698;23.148;2023-02-21T05:53:53;93857.13;;;8.69;51.96
10606;BME280;5350;42.698;23.148;2023-02-21T05:56:21;93857.59;;;8.76;51.58
10606;BME280;5350;42.698;23.148;2023-02-21T05:58:48;93852.03;;;8.88;51.44
10606;BME280;5350;42.698;23.148;2023-02-21T06:01:15;93865.41;;;8.86;51.48
10606;BME280;5350;42.698;23.148;2023-02-21T06:03:41;93840.78;;;8.82;50.94
10606;BME280;5350;42.698;23.148;2023-02-21T06:06:08;93874.78;;;8.98;50.92
10606;BME280;5350;42.698;23.148;2023-02-21T06:08:41;93860.34;;;9.00;50.74
10606;BME280;5350;42.698;23.148;2023-02-21T06:11:08;93867.16;;;9.01;51.01
10606;BME280;5350;42.698;23.148;2023-02-21T06:13:36;93870.53;;;9.07;50.36
10606;BME280;5350;42.698;23.148;2023-02-21T06:16:03;93883.88;;;9.15;50.69
10606;BME280;5350;42.698;23.148;2023-02-21T06:18:30;93880.88;;;9.27;49.89
10606;BME280;5350;42.698;23.148;2023-02-21T06:20:57;93880.34;;;9.30;50.11
10606;BME280;5350;42.698;23.148;2023-02-21T06:23:24;93869.19;;;9.43;49.89
10606;BME280;5350;42.698;23.148;2023-02-21T06:25:51;93876.00;;;9.49;49.12
10606;BME280;5350;42.698;23.148;2023-02-21T06:28:17;93880.16;;;9.50;49.40
10606;BME280;5350;42.698;23.148;2023-02-21T06:30:45;93889.25;;;9.62;48.94
10606;BME280;5350;42.698;23.148;2023-02-21T06:33:12;93888.38;;;9.72;48.51
10606;BME280;5350;42.698;23.148;2023-02-21T06:35:39;93895.09;;;9.83;48.35
10606;BME280;5350;42.698;23.148;2023-02-21T06:38:05;93883.50;;;9.89;47.82
10606;BME280;5350;42.698;23.148;2023-02-21T06:40:32;93890.53;;;9.94;47.76
10606;BME280;5350;42.698;23.148;2023-02-21T06:42:59;93879.25;;;9.93;48.17
10606;BME280;5350;42.698;23.148;2023-02-21T06:45:25;93881.25;;;10.01;47.91
10606;BME280;5350;42.698;23.148;2023-02-21T06:47:53;93886.19;;;10.08;47.70
10606;BME280;5350;42.698;23.148;2023-02-21T06:50:20;93892.31;;;10.03;47.76
10606;BME280;5350;42.698;23.148;2023-02-21T06:52:47;93879.38;;;10.07;47.68
10606;BME280;5350;42.698;23.148;2023-02-21T06:55:18;93863.56;;;10.12;47.70
10606;BME280;5350;42.698;23.148;2023-02-21T06:57:45;93882.50;;;10.09;47.56
10606;BME280;5350;42.698;23.148;2023-02-21T07:00:13;93885.56;;;10.21;47.56
10606;BME280;5350;42.698;23.148;2023-02-21T07:02:40;93883.06;;;10.34;46.77
10606;BME280;5350;42.698;23.148;2023-02-21T07:05:09;93887.34;;;10.49;46.24
10606;BME280;5350;42.698;23.148;2023-02-21T07:07:36;93876.16;;;10.38;46.39
10606;BME280;5350;42.698;23.148;2023-02-21T07:10:03;93889.41;;;10.28;46.77
10606;BME280;5350;42.698;23.148;2023-02-21T07:12:30;93899.94;;;10.28;46.91
10606;BME280;5350;42.698;23.148;2023-02-21T07:14:57;93903.63;;;10.27;46.82
10606;BME280;5350;42.698;23.148;2023-02-21T07:17:23;93895.63;;;10.37;46.60
10606;BME280;5350;42.698;23.148;2023-02-21T07:19:50;93897.13;;;10.43;46.46
10606;BME280;5350;42.698;23.148;2023-02-21T07:22:18;93898.13;;;10.48;46.32
10606;BME280;5350;42.698;23.148;2023-02-21T07:24:50;93890.31;;;10.42;46.44
10606;BME280;5350;42.698;23.148;2023-02-21T07:27:17;93891.38;;;10.41;46.42
10606;BME280;5350;42.698;23.148;2023-02-21T07:29:45;93886.69;;;10.38;46.63
10606;BME280;5350;42.698;23.148;2023-02-21T07:32:12;93883.19;;;10.43;46.77
10606;BME280;5350;42.698;23.148;2023-02-21T07:34:38;93878.34;;;10.31;47.04
10606;BME280;5350;42.698;23.148;2023-02-21T07:37:05;93875.03;;;10.44;46.52
10606;BME280;5350;42.698;23.148;2023-02-21T07:39:33;93869.44;;;10.51;46.56
10606;BME280;5350;42.698;23.148;2023-02-21T07:42:00;93864.34;;;10.60;46.43
10606;BME280;5350;42.698;23.148;2023-02-21T07:44:27;93875.22;;;10.72;46.07
10606;BME280;5350;42.698;23.148;2023-02-21T07:46:54;93861.94;;;10.82;46.31
10606;BME280;5350;42.698;23.148;2023-02-21T07:49:21;93859.16;;;10.92;45.59
10606;BME280;5350;42.698;23.148;2023-02-21T07:51:48;93851.59;;;11.04;45.37
10606;BME280;5350;42.698;23.148;2023-02-21T07:54:14;93852.19;;;11.01;45.23
10606;BME280;5350;42.698;23.148;2023-02-21T07:56:43;93852.34;;;11.09;44.88
10606;BME280;5350;42.698;23.148;2023-02-21T07:59:10;93856.72;;;11.14;44.95
10606;BME280;5350;42.698;23.148;2023-02-21T08:01:37;93852.00;;;11.30;44.63
10606;BME280;5350;42.698;23.148;2023-02-21T08:04:04;93837.19;;;11.34;44.51
10606;BME280;5350;42.698;23.148;2023-02-21T08:06:33;93833.22;;;11.36;44.64
10606;BME280;5350;42.698;23.148;2023-02-21T08:08:59;93835.69;;;11.46;44.76
10606;BME280;5350;42.698;23.148;2023-02-21T08:11:26;93851.44;;;11.65;44.01
10606;BME280;5350;42.698;23.148;2023-02-21T08:13:54;93838.56;;;11.63;43.38
10606;BME280;5350;42.698;23.148;2023-02-21T08:16:21;93852.88;;;11.76;43.50
10606;BME280;5350;42.698;23.148;2023-02-21T08:18:47;93835.28;;;11.85;43.75
10606;BME280;5350;42.698;23.148;2023-02-21T08:21:15;93838.34;;;11.78;43.40
10606;BME280;5350;42.698;23.148;2023-02-21T08:23:42;93848.78;;;11.83;43.48
10606;BME280;5350;42.698;23.148;2023-02-21T08:26:10;93834.34;;;11.94;43.23
10606;BME280;5350;42.698;23.148;2023-02-21T08:28:37;93845.69;;;12.09;42.93
10606;BME280;5350;42.698;23.148;2023-02-21T08:31:05;93835.22;;;12.17;42.37
10606;BME280;5350;42.698;23.148;2023-02-21T08:33:32;93824.47;;;12.27;42.46
10606;BME280;5350;42.698;23.148;2023-02-21T08:35:59;93828.88;;;12.32;41.81
10606;BME280;5350;42.698;23.148;2023-02-21T08:38:25;93831.44;;;12.37;41.82
10606;BME280;5350;42.698;23.148;2023-02-21T08:40:52;93838.94;;;12.57;40.80
10606;BME280;5350;42.698;23.148;2023-02-21T08:43:19;93832.38;;;12.68;41.07
10606;BME280;5350;42.698;23.148;2023-02-21T08:45:46;93832.63;;;12.80;41.63
10606;BME280;5350;42.698;23.148;2023-02-21T08:48:14;93832.94;;;12.78;41.46
10606;BME280;5350;42.698;23.148;2023-02-21T08:50:40;93820.78;;;12.91;39.93
10606;BME280;5350;42.698;23.148;2023-02-21T08:53:07;93821.91;;;12.99;40.86
10606;BME280;5350;42.698;23.148;2023-02-21T08:55:35;93834.22;;;13.03;40.69
10606;BME280;5350;42.698;23.148;2023-02-21T08:58:01;93820.44;;;13.06;40.25
10606;BME280;5350;42.698;23.148;2023-02-21T09:00:28;93825.56;;;13.25;40.80
10606;BME280;5350;42.698;23.148;2023-02-21T09:02:55;93816.97;;;13.41;40.15
10606;BME280;5350;42.698;23.148;2023-02-21T09:05:26;93805.72;;;13.58;39.59
10606;BME280;5350;42.698;23.148;2023-02-21T09:07:54;93811.31;;;13.79;39.46
10606;BME280;5350;42.698;23.148;2023-02-21T09:10:23;93808.72;;;13.96;39.04
10606;BME280;5350;42.698;23.148;2023-02-21T09:12:50;93798.56;;;14.20;37.82
10606;BME280;5350;42.698;23.148;2023-02-21T09:15:17;93803.47;;;14.35;37.67
10606;BME280;5350;42.698;23.148;2023-02-21T09:17:43;93801.78;;;14.56;38.09
10606;BME280;5350;42.698;23.148;2023-02-21T09:20:14;93806.53;;;14.93;37.75
10606;BME280;5350;42.698;23.148;2023-02-21T09:22:43;93788.59;;;14.90;36.32
10606;BME280;5350;42.698;23.148;2023-02-21T09:25:11;93799.06;;;14.95;35.55
10606;BME280;5350;42.698;23.148;2023-02-21T09:27:38;93794.66;;;15.16;36.25
10606;BME280;5350;42.698;23.148;2023-02-21T09:30:07;93803.72;;;15.41;34.65
10606;BME280;5350;42.698;23.148;2023-02-21T09:32:34;93800.28;;;15.41;35.73
10606;BME280;5350;42.698;23.148;2023-02-21T09:35:02;93792.00;;;15.51;35.50
10606;BME280;5350;42.698;23.148;2023-02-21T09:37:29;93774.56;;;15.50;35.20
10606;BME280;5350;42.698;23.148;2023-02-21T09:39:58;93785.25;;;15.79;34.45
10606;BME280;5350;42.698;23.148;2023-02-21T09:42:28;93791.69;;;16.07;34.03
10606;BME280;5350;42.698;23.148;2023-02-21T09:44:55;93785.34;;;16.37;31.84
10606;BME280;5350;42.698;23.148;2023-02-21T09:47:26;93791.22;;;16.51;32.67
10606;BME280;5350;42.698;23.148;2023-02-21T09:49:58;93788.69;;;16.46;32.86
10606;BME280;5350;42.698;23.148;2023-02-21T09:52:30;93788.50;;;16.60;33.72
10606;BME280;5350;42.698;23.148;2023-02-21T09:55:04;93781.94;;;16.87;32.56
10606;BME280;5350;42.698;23.148;2023-02-21T09:57:34;93783.84;;;16.98;31.68
10606;BME280;5350;42.698;23.148;2023-02-21T10:00:09;93782.84;;;16.91;30.29
10606;BME280;5350;42.698;23.148;2023-02-21T10:02:50;93773.63;;;16.67;31.57
10606;BME280;5350;42.698;23.148;2023-02-21T10:05:27;93778.09;;;16.75;32.20
10606;BME280;5350;42.698;23.148;2023-02-21T10:08:00;93775.78;;;16.95;31.86
10606;BME280;5350;42.698;23.148;2023-02-21T10:10:37;93778.72;;;17.34;29.57
10606;BME280;5350;42.698;23.148;2023-02-21T10:13:21;93765.41;;;17.55;29.39
10606;BME280;5350;42.698;23.148;2023-02-21T10:15:53;93764.78;;;17.58;28.57
10606;BME280;5350;42.698;23.148;2023-02-21T10:18:29;93745.97;;;17.75;29.34
10606;BME280;5350;42.698;23.148;2023-02-21T10:21:00;93750.28;;;17.80;29.04
10606;BME280;5350;42.698;23.148;2023-02-21T10:23:34;93747.09;;;17.98;29.25
10606;BME280;5350;42.698;23.148;2023-02-21T10:26:06;93751.09;;;17.92;28.62
10606;BME280;5350;42.698;23.148;2023-02-21T10:28:35;93746.34;;;18.22;28.75
10606;BME280;5350;42.698;23.148;2023-02-21T10:31:07;93746.56;;;18.17;28.25
10606;BME280;5350;42.698;23.148;2023-02-21T10:33:36;93741.69;;;18.19;28.56
10606;BME280;5350;42.698;23.148;2023-02-21T10:36:10;93740.78;;;18.39;27.85
10606;BME280;5350;42.698;23.148;2023-02-21T10:38:39;93736.03;;;18.20;28.04
10606;BME280;5350;42.698;23.148;2023-02-21T10:41:09;93738.69;;;18.32;27.34
10606;BME280;5350;42.698;23.148;2023-02-21T10:43:39;93728.94;;;18.24;27.84
10606;BME280;5350;42.698;23.148;2023-02-21T10:46:12;93732.00;;;18.02;27.49
10606;BME280;5350;42.698;23.148;2023-02-21T10:48:42;93727.91;;;17.93;28.06
10606;BME280;5350;42.698;23.148;2023-02-21T10:51:13;93728.38;;;18.31;28.15
10606;BME280;5350;42.698;23.148;2023-02-21T10:53:41;93717.16;;;18.38;28.11
10606;BME280;5350;42.698;23.148;2023-02-21T10:56:23;93711.06;;;18.37;28.04
10606;BME280;5350;42.698;23.148;2023-02-21T10:58:53;93723.59;;;18.49;27.75
10606;BME280;5350;42.698;23.148;2023-02-21T11:01:30;93705.06;;;18.64;27.86
10606;BME280;5350;42.698;23.148;2023-02-21T11:03:59;93707.72;;;18.64;27.95
10606;BME280;5350;42.698;23.148;2023-02-21T11:06:32;93709.81;;;18.59;27.56
10606;BME280;5350;42.698;23.148;2023-02-21T11:09:00;93705.50;;;18.66;27.84
10606;BME280;5350;42.698;23.148;2023-02-21T11:11:33;93697.81;;;18.77;27.93
10606;BME280;5350;42.698;23.148;2023-02-21T11:14:19;93696.38;;;18.79;27.78
10606;BME280;5350;42.698;23.148;2023-02-21T11:17:03;93688.75;;;18.54;27.07
10606;BME280;5350;42.698;23.148;2023-02-21T11:19:44;93689.19;;;18.56;27.13
10606;BME280;5350;42.698;23.148;2023-02-21T11:22:12;93679.56;;;18.51;27.64
10606;BME280;5350;42.698;23.148;2023-02-21T11:24:49;93665.44;;;18.63;27.46
10606;BME280;5350;42.698;23.148;2023-02-21T11:27:18;93679.41;;;18.60;27.37
10606;BME280;5350;42.698;23.148;2023-02-21T11:29:47;93666.19;;;18.63;27.55
10606;BME280;5350;42.698;23.148;2023-02-21T11:32:22;93661.69;;;18.91;27.71
10606;BME280;5350;42.698;23.148;2023-02-21T11:34:50;93666.50;;;19.29;27.92
10606;BME280;5350;42.698;23.148;2023-02-21T11:37:16;93648.31;;;19.47;27.00
10606;BME280;5350;42.698;23.148;2023-02-21T11:39:49;93653.81;;;19.38;27.43
10606;BME280;5350;42.698;23.148;2023-02-21T11:42:26;93653.25;;;19.33;27.34
10606;BME280;5350;42.698;23.148;2023-02-21T11:45:09;93642.88;;;19.43;27.68
10606;BME280;5350;42.698;23.148;2023-02-21T11:47:44;93638.66;;;19.73;27.17
10606;BME280;5350;42.698;23.148;2023-02-21T11:50:17;93632.91;;;19.87;26.74
10606;BME280;5350;42.698;23.148;2023-02-21T11:52:48;93637.03;;;20.00;26.59
10606;BME280;5350;42.698;23.148;2023-02-21T11:55:19;93626.69;;;19.99;26.80
10606;BME280;5350;42.698;23.148;2023-02-21T11:58:00;93627.53;;;20.03;25.70
10606;BME280;5350;42.698;23.148;2023-02-21T12:00:37;93622.88;;;20.15;26.60
10606;BME280;5350;42.698;23.148;2023-02-21T12:03:22;93611.03;;;20.32;26.28
10606;BME280;5350;42.698;23.148;2023-02-21T12:05:57;93614.19;;;20.34;26.76
10606;BME280;5350;42.698;23.148;2023-02-21T12:08:46;93608.84;;;20.34;26.14
10606;BME280;5350;42.698;23.148;2023-02-21T12:11:23;93597.19;;;20.26;25.79
10606;BME280;5350;42.698;23.148;2023-02-21T12:14:05;93598.56;;;20.55;26.07
10606;BME280;5350;42.698;23.148;2023-02-21T12:16:43;93592.66;;;20.84;25.64
10606;BME280;5350;42.698;23.148;2023-02-21T12:19:35;93584.31;;;20.86;25.58
10606;BME280;5350;42.698;23.148;2023-02-21T12:22:15;93580.28;;;20.57;26.38
10606;BME280;5350;42.698;23.148;2023-02-21T12:24:56;93581.34;;;20.71;25.70
10606;BME280;5350;42.698;23.148;2023-02-21T12:27:34;93560.66;;;20.68;26.60
10606;BME280;5350;42.698;23.148;2023-02-21T12:30:18;93571.81;;;20.93;25.40
10606;BME280;5350;42.698;23.148;2023-02-21T12:32:57;93569.16;;;20.74;25.58
10606;BME280;5350;42.698;23.148;2023-02-21T12:35:48;93561.03;;;20.67;25.27
10606;BME280;5350;42.698;23.148;2023-02-21T12:38:28;93562.00;;;20.59;26.28
10606;BME280;5350;42.698;23.148;2023-02-21T12:41:07;93563.81;;;20.55;25.98
10606;BME280;5350;42.698;23.148;2023-02-21T12:43:51;93558.47;;;20.74;25.18
10606;BME280;5350;42.698;23.148;2023-02-21T12:46:33;93549.41;;;21.20;25.19
10606;BME280;5350;42.698;23.148;2023-02-21T12:49:05;93550.97;;;21.21;24.65
10606;BME280;5350;42.698;23.148;2023-02-21T12:51:38;93552.75;;;21.36;24.96
10606;BME280;5350;42.698;23.148;2023-02-21T12:54:10;93545.38;;;21.53;24.73
10606;BME280;5350;42.698;23.148;2023-02-21T12:56:44;93543.69;;;21.90;25.04
10606;BME280;5350;42.698;23.148;2023-02-21T12:59:16;93536.69;;;21.82;24.91
10606;BME280;5350;42.698;23.148;2023-02-21T13:01:48;93533.88;;;22.01;24.35
10606;BME280;5350;42.698;23.148;2023-02-21T13:04:26;93526.34;;;22.10;24.71
10606;BME280;5350;42.698;23.148;2023-02-21T13:07:01;93530.44;;;22.30;23.79
10606;BME280;5350;42.698;23.148;2023-02-21T13:09:33;93524.44;;;21.84;24.21
10606;BME280;5350;42.698;23.148;2023-02-21T13:12:05;93509.22;;;21.88;24.35
10606;BME280;5350;42.698;23.148;2023-02-21T13:14:38;93513.81;;;21.88;24.98
10606;BME280;5350;42.698;23.148;2023-02-21T13:17:10;93504.50;;;22.08;24.13
10606;BME280;5350;42.698;23.148;2023-02-21T13:19:41;93504.97;;;22.13;23.77
10606;BME280;5350;42.698;23.148;2023-02-21T13:22:28;93499.16;;;22.67;23.04
10606;BME280;5350;42.698;23.148;2023-02-21T13:25:20;93516.19;;;22.22;22.71
10606;BME280;5350;42.698;23.148;2023-02-21T13:27:54;93510.19;;;22.03;23.23
10606;BME280;5350;42.698;23.148;2023-02-21T13:30:26;93498.88;;;22.16;23.62
10606;BME280;5350;42.698;23.148;2023-02-21T13:32:57;93506.53;;;22.14;22.92
10606;BME280;5350;42.698;23.148;2023-02-21T13:35:29;93499.75;;;22.24;22.60